createdAt,value
2017-05-15T00:00:58.427Z,14.40
2017-05-15T00:03:31.961Z,14.96
2017-05-15T00:06:09.085Z,15.38
2017-05-15T00:08:41.794Z,14.16
2017-05-15T00:11:17.712Z,16.44
2017-05-15T00:13:50.029Z,17.52
2017-05-15T00:16:26.136Z,14.86
2017-05-15T00:19:00.510Z,15.56
2017-05-15T00:21:33.661Z,17.36
2017-05-15T00:24:09.746Z,16.42
2017-05-15T00:26:42.057Z,15.68
2017-05-15T00:29:15.945Z,17.00
2017-05-15T00:31:47.142Z,15.08
2017-05-15T00:34:20.155Z,14.74
2017-05-15T00:36:51.679Z,13.70
2017-05-15T00:39:28.183Z,14.54
2017-05-15T00:41:59.911Z,15.10
2017-05-15T00:44:36.131Z,18.60
2017-05-15T00:47:09.233Z,13.52
2017-05-15T00:49:42.198Z,18.30
2017-05-15T00:52:15.637Z,20.04
2017-05-15T00:54:48.365Z,16.88
2017-05-15T00:57:24.733Z,14.34
2017-05-15T00:59:59.008Z,13.64
2017-05-15T01:02:35.025Z,16.20
2017-05-15T01:05:08.134Z,14.80
2017-05-15T01:07:39.780Z,15.88
2017-05-15T01:10:14.371Z,17.10
2017-05-15T01:12:48.593Z,15.40
2017-05-15T01:15:19.332Z,18.68
2017-05-15T01:17:54.497Z,19.46
2017-05-15T01:20:32.768Z,16.50
2017-05-15T01:23:04.292Z,18.36
2017-05-15T01:25:36.852Z,21.10
2017-05-15T01:28:09.304Z,21.42
2017-05-15T01:30:43.876Z,21.04
2017-05-15T01:33:18.197Z,22.88
2017-05-15T01:35:55.623Z,23.02
2017-05-15T01:38:29.961Z,20.76
2017-05-15T01:41:02.835Z,20.16
2017-05-15T01:43:36.543Z,20.08
2017-05-15T01:46:10.699Z,21.30
2017-05-15T01:48:44.174Z,22.60
2017-05-15T01:51:16.388Z,19.62
2017-05-15T01:53:48.058Z,20.70
2017-05-15T01:56:22.942Z,17.76
2017-05-15T01:58:57.473Z,20.90
2017-05-15T02:01:31.211Z,18.58
2017-05-15T02:04:05.838Z,21.88
2017-05-15T02:06:37.681Z,18.76
2017-05-15T02:09:07.054Z,17.28
2017-05-15T02:11:39.491Z,21.06
2017-05-15T02:14:19.465Z,21.12
2017-05-15T02:16:52.088Z,24.72
2017-05-15T02:19:28.675Z,17.86
2017-05-15T02:22:04.672Z,18.94
2017-05-15T02:24:38.802Z,19.18
2017-05-15T02:27:13.165Z,20.54
2017-05-15T02:29:49.064Z,20.28
2017-05-15T02:32:24.975Z,19.72
2017-05-15T02:35:01.000Z,21.38
2017-05-15T02:37:36.723Z,18.10
2017-05-15T02:40:11.306Z,20.88
2017-05-15T02:42:43.533Z,18.16
2017-05-15T02:45:21.776Z,24.76
2017-05-15T02:47:58.158Z,17.98
2017-05-15T02:50:37.265Z,19.34
2017-05-15T02:53:11.736Z,21.16
2017-05-15T02:55:45.209Z,18.04
2017-05-15T02:58:15.764Z,24.04
2017-05-15T03:00:45.627Z,18.54
2017-05-15T03:03:18.572Z,18.70
2017-05-15T03:05:53.076Z,19.58
2017-05-15T03:08:23.586Z,18.28
2017-05-15T03:10:56.200Z,21.40
2017-05-15T03:13:30.072Z,23.46
2017-05-15T03:16:00.704Z,18.20
2017-05-15T03:18:31.725Z,18.64
2017-05-15T03:21:04.068Z,21.44
2017-05-15T03:23:39.230Z,19.34
2017-05-15T03:26:15.972Z,17.98
2017-05-15T03:28:50.528Z,22.58
2017-05-15T03:31:25.495Z,18.24
2017-05-15T03:34:01.922Z,22.68
2017-05-15T03:36:37.438Z,25.58
2017-05-15T03:39:09.303Z,19.64
2017-05-15T03:41:41.440Z,20.66
2017-05-15T03:44:12.560Z,16.88
2017-05-15T03:46:49.262Z,19.80
2017-05-15T03:49:20.444Z,23.02
2017-05-15T03:51:55.650Z,17.70
2017-05-15T03:54:28.387Z,17.80
2017-05-15T03:57:00.493Z,18.34
2017-05-15T03:59:34.898Z,17.58
2017-05-15T04:02:03.945Z,17.48
2017-05-15T04:04:33.764Z,16.74
2017-05-15T04:07:04.665Z,17.14
2017-05-15T04:09:33.744Z,16.80
2017-05-15T04:12:02.813Z,16.04
2017-05-15T04:14:31.871Z,16.84
2017-05-15T04:17:03.968Z,17.02
2017-05-15T04:19:36.416Z,16.62
2017-05-15T04:22:07.240Z,19.48
2017-05-15T04:24:37.473Z,19.36
2017-05-15T04:27:07.342Z,20.66
2017-05-15T04:29:36.413Z,22.02
2017-05-15T04:32:05.464Z,21.00
2017-05-15T04:34:34.549Z,21.04
2017-05-15T04:37:05.923Z,23.68
2017-05-15T04:39:42.673Z,22.36
2017-05-15T04:42:20.096Z,24.28
2017-05-15T04:44:53.340Z,22.78
2017-05-15T04:47:26.936Z,27.58
2017-05-15T04:50:01.511Z,22.16
2017-05-15T04:52:35.425Z,21.58
2017-05-15T04:55:09.112Z,23.38
2017-05-15T04:57:44.181Z,25.20
2017-05-15T05:00:15.433Z,24.52
2017-05-15T05:02:46.905Z,26.34
2017-05-15T05:05:16.829Z,25.36
2017-05-15T05:07:45.917Z,25.72
2017-05-15T05:10:19.006Z,24.26
2017-05-15T05:12:51.882Z,27.32
2017-05-15T05:15:20.968Z,22.84
2017-05-15T05:17:50.513Z,26.02
2017-05-15T05:24:20.639Z,25.48
2017-05-15T05:27:18.491Z,22.10
2017-05-15T05:30:18.691Z,25.48
2017-05-15T05:33:20.035Z,25.80
2017-05-15T05:39:24.664Z,25.38
2017-05-15T05:42:12.436Z,22.78
2017-05-15T05:44:44.673Z,24.26
2017-05-15T05:47:14.581Z,27.62
2017-05-15T05:49:48.014Z,20.02
2017-05-15T05:52:17.114Z,17.90
2017-05-15T05:54:46.183Z,21.50
2017-05-15T05:57:17.984Z,20.10
2017-05-15T06:00:15.705Z,18.90
2017-05-15T06:03:03.066Z,16.28
2017-05-15T06:06:00.830Z,19.20
2017-05-15T06:08:57.702Z,16.54
2017-05-15T06:11:59.127Z,17.26
2017-05-15T06:14:45.774Z,13.44
2017-05-15T06:17:43.076Z,14.26
2017-05-15T06:20:12.143Z,22.28
2017-05-15T06:22:59.466Z,14.20
2017-05-15T06:25:46.042Z,20.84
2017-05-15T06:28:15.115Z,16.06
2017-05-15T06:30:44.171Z,13.54
2017-05-15T06:33:13.238Z,17.34
2017-05-15T06:35:42.292Z,17.48
2017-05-15T06:38:42.993Z,12.70
2017-05-15T06:41:30.930Z,12.00
2017-05-15T06:44:00.773Z,11.92
2017-05-15T06:46:36.065Z,15.58
2017-05-15T06:49:05.133Z,12.12
2017-05-15T06:51:34.221Z,12.86
2017-05-15T06:54:03.270Z,10.70
2017-05-15T06:56:32.316Z,12.60
2017-05-15T06:59:01.445Z,15.40
2017-05-15T07:01:30.491Z,12.58
2017-05-15T07:03:59.550Z,12.02
2017-05-15T07:06:28.622Z,12.36
2017-05-15T07:08:58.912Z,10.48
2017-05-15T07:11:27.992Z,10.98
2017-05-15T07:13:57.804Z,9.72
2017-05-15T07:16:27.603Z,9.04
2017-05-15T07:18:57.408Z,9.42
2017-05-15T07:21:29.248Z,7.88
2017-05-15T07:23:59.063Z,8.08
2017-05-15T07:26:29.884Z,6.84
2017-05-15T07:29:01.273Z,8.18
2017-05-15T07:31:31.405Z,11.30
2017-05-15T07:34:02.036Z,11.64
2017-05-15T07:36:34.307Z,9.18
2017-05-15T07:39:05.035Z,12.04
2017-05-15T07:41:35.751Z,8.92
2017-05-15T07:44:05.568Z,8.72
2017-05-15T07:46:34.627Z,9.78
2017-05-15T07:49:05.862Z,11.70
2017-05-15T07:51:34.924Z,8.56
2017-05-15T07:54:04.708Z,12.84
2017-05-15T07:56:33.753Z,8.52
2017-05-15T07:59:05.242Z,11.16
2017-05-15T08:01:34.312Z,9.58
2017-05-15T08:04:03.420Z,14.26
2017-05-15T08:06:32.478Z,10.20
2017-05-15T08:09:01.553Z,8.46
2017-05-15T08:11:31.342Z,12.46
2017-05-15T08:14:00.410Z,10.58
2017-05-15T08:16:32.227Z,10.10
2017-05-15T08:19:02.392Z,10.18
2017-05-15T08:21:31.453Z,8.22
2017-05-15T08:24:06.941Z,10.64
2017-05-15T08:26:36.026Z,9.08
2017-05-15T08:29:07.131Z,7.94
2017-05-15T08:31:42.961Z,8.74
2017-05-15T08:34:12.035Z,11.76
2017-05-15T08:36:41.952Z,14.96
2017-05-15T08:39:11.043Z,12.40
2017-05-15T08:41:43.684Z,11.54
2017-05-15T08:44:13.213Z,7.06
2017-05-15T08:46:43.985Z,10.72
2017-05-15T08:49:13.828Z,10.98
2017-05-15T08:51:43.648Z,7.80
2017-05-15T08:54:15.338Z,11.74
2017-05-15T08:56:45.153Z,9.56
2017-05-15T08:59:14.192Z,13.02
2017-05-15T09:01:48.315Z,9.56
2017-05-15T09:04:20.679Z,14.78
2017-05-15T09:06:51.292Z,11.56
2017-05-15T09:09:22.990Z,10.38
2017-05-15T09:11:53.551Z,9.76
2017-05-15T09:14:22.900Z,15.24
2017-05-15T09:16:52.808Z,9.50
2017-05-15T09:19:22.622Z,8.22
2017-05-15T09:21:56.690Z,8.92
2017-05-15T09:24:28.347Z,10.04
2017-05-15T09:27:00.542Z,13.24
2017-05-15T09:29:29.597Z,12.38
2017-05-15T09:32:03.745Z,14.36
2017-05-15T09:34:35.552Z,12.20
2017-05-15T09:37:07.904Z,11.68
2017-05-15T09:39:42.344Z,12.18
2017-05-15T09:42:13.578Z,14.58
2017-05-15T09:44:42.638Z,15.10
2017-05-15T09:47:14.887Z,12.00
2017-05-15T09:49:47.772Z,12.74
2017-05-15T09:52:16.873Z,14.46
2017-05-15T09:54:47.916Z,10.68
2017-05-15T09:57:20.793Z,10.36
2017-05-15T09:59:56.245Z,12.86
2017-05-15T10:02:27.855Z,9.82
2017-05-15T10:04:56.927Z,10.30
2017-05-15T10:07:30.710Z,13.74
2017-05-15T10:10:06.555Z,13.72
2017-05-15T10:12:35.936Z,12.94
2017-05-15T10:15:08.117Z,10.48
2017-05-15T10:17:40.418Z,10.00
2017-05-15T10:20:11.230Z,8.44
2017-05-15T10:22:45.132Z,12.56
2017-05-15T10:25:16.652Z,9.22
2017-05-15T10:27:50.045Z,10.64
2017-05-15T10:30:22.326Z,9.18
2017-05-15T10:32:56.365Z,10.32
2017-05-15T10:35:32.582Z,10.30
2017-05-15T10:38:03.379Z,7.72
2017-05-15T10:40:39.775Z,9.66
2017-05-15T10:43:15.113Z,8.50
2017-05-15T10:45:51.905Z,8.62
2017-05-15T10:48:22.815Z,9.94
2017-05-15T10:50:58.541Z,6.38
2017-05-15T10:53:30.297Z,7.50
2017-05-15T10:56:05.129Z,7.98
2017-05-15T10:58:37.471Z,8.36
2017-05-15T11:01:09.637Z,7.54
2017-05-15T11:03:40.460Z,6.82
2017-05-15T11:06:13.212Z,8.64
2017-05-15T11:08:42.873Z,9.88
2017-05-15T11:11:15.262Z,9.02
2017-05-15T11:13:46.930Z,9.08
2017-05-15T11:16:22.897Z,10.58
2017-05-15T11:18:54.719Z,6.40
2017-05-15T11:21:25.740Z,6.86
2017-05-15T11:24:00.468Z,4.76
2017-05-15T11:26:31.650Z,6.28
2017-05-15T11:29:05.724Z,6.78
2017-05-15T11:31:38.050Z,7.28
2017-05-15T11:34:08.973Z,7.28
2017-05-15T11:36:42.382Z,9.32
2017-05-15T11:39:14.344Z,4.60
2017-05-15T11:41:44.816Z,4.86
2017-05-15T11:44:15.781Z,4.26
2017-05-15T11:46:49.506Z,10.88
2017-05-15T11:49:18.634Z,4.82
2017-05-15T11:51:54.556Z,6.88
2017-05-15T11:54:27.414Z,4.92
2017-05-15T11:56:59.520Z,3.82
2017-05-15T11:59:32.596Z,5.00
2017-05-15T12:02:05.695Z,6.30
2017-05-15T12:04:38.157Z,7.42
2017-05-15T12:07:12.476Z,4.34
2017-05-15T12:09:47.763Z,6.26
2017-05-15T12:12:20.385Z,6.70
2017-05-15T12:14:56.066Z,4.90
2017-05-15T12:17:29.957Z,3.04
2017-05-15T12:20:05.005Z,7.18
2017-05-15T12:22:40.182Z,3.98
2017-05-15T12:25:12.344Z,4.16
2017-05-15T12:27:46.788Z,5.14
2017-05-15T12:30:19.924Z,4.94
2017-05-15T12:32:53.715Z,4.42
2017-05-15T12:35:25.452Z,5.04
2017-05-15T12:37:59.738Z,4.46
2017-05-15T12:40:31.424Z,5.58
2017-05-15T12:43:03.625Z,3.12
2017-05-15T12:45:34.747Z,5.88
2017-05-15T12:48:08.454Z,3.58
2017-05-15T12:50:40.997Z,5.80
2017-05-15T12:53:16.146Z,6.24
2017-05-15T12:55:48.428Z,4.66
2017-05-15T12:58:22.208Z,3.20
2017-05-15T13:00:59.348Z,3.80
2017-05-15T13:03:35.899Z,5.28
2017-05-15T13:06:08.248Z,6.18
2017-05-15T13:08:43.129Z,6.60
2017-05-15T13:11:16.716Z,3.68
2017-05-15T13:13:52.111Z,7.50
2017-05-15T13:16:24.790Z,5.34
2017-05-15T13:18:58.004Z,5.06
2017-05-15T13:21:32.569Z,4.44
2017-05-15T13:24:08.232Z,4.76
2017-05-15T13:26:38.579Z,5.60
2017-05-15T13:29:10.182Z,5.18
2017-05-15T13:31:46.794Z,3.00
2017-05-15T13:34:19.646Z,3.52
2017-05-15T13:36:53.244Z,5.44
2017-05-15T13:39:25.815Z,3.02
2017-05-15T13:42:00.768Z,3.42
2017-05-15T13:44:33.375Z,3.16
2017-05-15T13:47:08.525Z,3.94
2017-05-15T13:49:42.785Z,4.76
2017-05-15T13:52:17.858Z,8.30
2017-05-15T13:54:51.577Z,5.74
2017-05-15T13:57:26.525Z,3.90
2017-05-15T13:59:59.625Z,5.42
2017-05-15T14:02:32.939Z,5.04
2017-05-15T14:05:07.377Z,3.92
2017-05-15T14:07:40.080Z,6.74
2017-05-15T14:10:12.034Z,6.12
2017-05-15T14:12:48.062Z,3.82
2017-05-15T14:15:20.047Z,3.68
2017-05-15T14:17:51.091Z,4.72
2017-05-15T14:20:27.516Z,3.02
2017-05-15T14:23:02.627Z,3.90
2017-05-15T14:25:38.161Z,5.38
2017-05-15T14:28:09.002Z,5.94
2017-05-15T14:30:41.413Z,3.24
2017-05-15T14:33:17.578Z,10.54
2017-05-15T14:35:49.175Z,4.00
2017-05-15T14:38:19.509Z,4.36
2017-05-15T14:40:49.324Z,6.56
2017-05-15T14:43:21.555Z,7.04
2017-05-15T14:45:55.709Z,4.66
2017-05-15T14:48:29.297Z,5.30
2017-05-15T14:50:59.255Z,3.82
2017-05-15T14:53:30.805Z,6.24
2017-05-15T14:56:00.210Z,5.22
2017-05-15T14:58:31.691Z,4.52
2017-05-15T15:01:02.340Z,4.80
2017-05-15T15:03:32.053Z,8.34
2017-05-15T15:06:02.049Z,5.06
2017-05-15T15:08:34.068Z,3.08
2017-05-15T15:11:03.851Z,7.54
2017-05-15T15:13:33.248Z,3.30
2017-05-15T15:16:02.293Z,4.92
2017-05-15T15:18:32.733Z,4.10
2017-05-15T15:21:01.769Z,3.68
2017-05-15T15:23:30.826Z,4.06
2017-05-15T15:25:59.990Z,3.90
2017-05-15T15:28:29.772Z,4.74
2017-05-15T15:30:58.965Z,5.82
2017-05-15T15:33:28.039Z,7.46
2017-05-15T15:35:57.096Z,4.38
2017-05-15T15:38:26.153Z,3.82
2017-05-15T15:40:55.225Z,3.70
2017-05-15T15:43:24.294Z,3.84
2017-05-15T15:45:53.405Z,3.38
2017-05-15T15:48:22.448Z,3.02
2017-05-15T15:50:51.941Z,3.22
2017-05-15T15:53:21.076Z,10.10
2017-05-15T15:55:50.484Z,6.30
2017-05-15T15:58:19.582Z,4.78
2017-05-15T16:00:48.649Z,4.46
2017-05-15T16:03:18.484Z,3.50
2017-05-15T16:05:47.553Z,4.44
2017-05-15T16:08:17.377Z,3.40
2017-05-15T16:10:47.194Z,2.94
2017-05-15T16:13:16.996Z,3.48
2017-05-15T16:15:47.060Z,4.40
2017-05-15T16:18:16.124Z,3.92
2017-05-15T16:20:45.186Z,3.00
2017-05-15T16:23:14.263Z,4.94
2017-05-15T16:25:43.324Z,2.96
2017-05-15T16:28:12.382Z,3.70
2017-05-15T16:30:42.189Z,3.74
2017-05-15T16:33:11.229Z,3.06
2017-05-15T16:35:40.277Z,4.20
2017-05-15T16:38:09.355Z,4.04
2017-05-15T16:40:38.412Z,2.90
2017-05-15T16:43:07.491Z,3.44
2017-05-15T16:45:37.317Z,5.78
2017-05-15T16:48:06.370Z,2.40
2017-05-15T16:50:35.463Z,4.52
2017-05-15T16:53:04.535Z,3.22
2017-05-15T16:55:33.588Z,3.44
2017-05-15T16:58:02.666Z,2.86
2017-05-15T17:00:32.468Z,8.06
2017-05-15T17:03:01.544Z,2.66
2017-05-15T17:05:30.632Z,2.80
2017-05-15T17:07:59.818Z,5.48
2017-05-15T17:10:28.873Z,4.22
2017-05-15T17:12:58.670Z,4.84
2017-05-15T17:15:27.872Z,4.20
2017-05-15T17:17:57.699Z,5.78
2017-05-15T17:20:26.766Z,3.74
2017-05-15T17:22:55.842Z,2.56
2017-05-15T17:25:24.928Z,5.10
2017-05-15T17:27:53.985Z,4.86
2017-05-15T17:30:23.983Z,2.94
2017-05-15T17:32:53.280Z,3.98
2017-05-15T17:35:22.746Z,4.66
2017-05-15T17:37:52.968Z,5.00
2017-05-15T17:40:23.403Z,3.02
2017-05-15T17:42:53.591Z,4.08
2017-05-15T17:45:22.971Z,4.92
2017-05-15T17:47:53.343Z,2.90
2017-05-15T17:50:22.745Z,2.32
2017-05-15T17:52:52.129Z,4.48
2017-05-15T17:55:21.485Z,7.06
2017-05-15T17:57:50.909Z,2.50
2017-05-15T18:00:20.284Z,3.10
2017-05-15T18:02:50.172Z,3.24
2017-05-15T18:05:19.624Z,2.96
2017-05-15T18:07:48.995Z,2.54
2017-05-15T18:10:18.382Z,1.98
2017-05-15T18:12:47.799Z,4.36
2017-05-15T18:15:17.171Z,2.46
2017-05-15T18:17:46.585Z,2.16
2017-05-15T18:20:16.036Z,2.72
2017-05-15T18:22:45.482Z,3.46
2017-05-15T18:25:14.855Z,3.38
2017-05-15T18:27:44.406Z,2.28
2017-05-15T18:30:15.475Z,1.84
2017-05-15T18:32:44.917Z,3.18
2017-05-15T18:35:14.428Z,1.76
2017-05-15T18:37:43.972Z,1.92
2017-05-15T18:40:14.171Z,3.22
2017-05-15T18:42:43.647Z,3.66
2017-05-15T18:45:13.233Z,3.66
2017-05-15T18:47:42.804Z,1.68
2017-05-15T18:50:13.040Z,2.70
2017-05-15T18:52:43.402Z,2.26
2017-05-15T18:55:12.916Z,1.58
2017-05-15T18:57:42.360Z,4.18
2017-05-15T19:00:12.583Z,5.58
2017-05-15T19:02:42.750Z,2.30
2017-05-15T19:05:12.256Z,3.92
2017-05-15T19:07:41.714Z,3.72
2017-05-15T19:10:12.141Z,1.68
2017-05-15T19:12:42.364Z,1.30
2017-05-15T19:15:13.883Z,2.08
2017-05-15T19:17:43.464Z,2.34
2017-05-15T19:20:13.439Z,1.80
2017-05-15T19:22:43.672Z,5.16
2017-05-15T19:25:13.987Z,2.84
2017-05-15T19:27:44.180Z,3.06
2017-05-15T19:30:13.713Z,4.24
2017-05-15T19:32:43.084Z,2.02
2017-05-15T19:35:12.178Z,4.60
2017-05-15T19:37:41.271Z,4.36
2017-05-15T19:40:10.342Z,4.58
2017-05-15T19:42:40.200Z,6.38
2017-05-15T19:45:09.283Z,3.66
2017-05-15T19:47:38.349Z,3.08
2017-05-15T19:50:08.175Z,2.88
2017-05-15T19:52:37.291Z,3.68
2017-05-15T19:55:06.411Z,2.46
2017-05-15T19:57:35.521Z,3.66
2017-05-15T20:00:05.223Z,2.44
2017-05-15T20:02:34.325Z,1.78
2017-05-15T20:05:04.329Z,3.22
2017-05-15T20:07:33.936Z,1.70
2017-05-15T20:10:03.038Z,1.74
2017-05-15T20:12:32.112Z,3.94
2017-05-15T20:15:01.264Z,5.80
2017-05-15T20:17:31.078Z,4.94
2017-05-15T20:20:00.927Z,2.96
2017-05-15T20:22:30.016Z,5.34
2017-05-15T20:24:59.096Z,4.30
2017-05-15T20:27:29.262Z,3.98
2017-05-15T20:29:58.667Z,3.84
2017-05-15T20:32:27.743Z,4.68
2017-05-15T20:34:56.849Z,3.56
2017-05-15T20:37:25.931Z,1.72
2017-05-15T20:39:55.019Z,2.18
2017-05-15T20:42:24.110Z,5.62
2017-05-15T20:44:53.200Z,2.94
2017-05-15T20:47:22.312Z,4.60
2017-05-15T20:49:51.375Z,6.14
2017-05-15T20:52:21.191Z,5.12
2017-05-15T20:54:50.779Z,6.20
2017-05-15T20:57:19.857Z,4.98
2017-05-15T20:59:48.999Z,7.76
2017-05-15T21:02:18.098Z,7.62
2017-05-15T21:04:47.169Z,6.30
2017-05-15T21:07:17.003Z,6.44
2017-05-15T21:09:46.180Z,16.48
2017-05-15T21:12:16.119Z,4.82
2017-05-15T21:14:45.218Z,6.42
2017-05-15T21:17:14.300Z,6.48
2017-05-15T21:19:44.114Z,7.56
2017-05-15T21:22:13.375Z,8.02
2017-05-15T21:24:42.440Z,4.00
2017-05-15T21:27:11.802Z,5.36
2017-05-15T21:29:41.615Z,5.02
2017-05-15T21:32:11.472Z,5.38
2017-05-15T21:34:40.592Z,4.00
2017-05-15T21:37:09.721Z,4.08
2017-05-15T21:39:39.561Z,4.38
2017-05-15T21:42:08.635Z,5.58
2017-05-15T21:44:37.747Z,5.04
2017-05-15T21:47:06.981Z,5.06
2017-05-15T21:49:36.108Z,3.30
2017-05-15T21:52:05.955Z,2.20
2017-05-15T21:54:35.039Z,4.48
2017-05-15T21:57:04.124Z,3.54
2017-05-15T21:59:33.981Z,3.66
2017-05-15T22:02:03.063Z,5.78
2017-05-15T22:04:32.145Z,6.38
2017-05-15T22:07:01.228Z,4.78
2017-05-15T22:09:31.044Z,6.26
2017-05-15T22:12:00.121Z,6.06
2017-05-15T22:14:29.192Z,5.36
2017-05-15T22:16:58.322Z,4.12
2017-05-15T22:19:28.494Z,10.04
2017-05-15T22:21:57.604Z,7.12
2017-05-15T22:24:26.690Z,7.36
2017-05-15T22:26:55.784Z,6.58
2017-05-15T22:29:24.906Z,8.58
2017-05-15T22:31:54.020Z,9.12
2017-05-15T22:34:23.827Z,9.12
2017-05-15T22:36:53.662Z,8.40
2017-05-15T22:39:22.784Z,6.78
2017-05-15T22:41:51.866Z,5.74
2017-05-15T22:44:20.992Z,6.46
2017-05-15T22:46:50.240Z,6.12
2017-05-15T22:49:19.328Z,5.24
2017-05-15T22:51:49.496Z,3.60
2017-05-15T22:54:18.563Z,5.52
2017-05-15T22:56:47.655Z,4.24
2017-05-15T22:59:16.755Z,4.28
2017-05-15T23:01:45.864Z,3.86
2017-05-15T23:04:14.939Z,5.34
2017-05-15T23:06:44.015Z,5.20
2017-05-15T23:09:13.827Z,7.72
2017-05-15T23:11:43.630Z,4.18
2017-05-15T23:14:12.734Z,3.76
2017-05-15T23:16:42.540Z,6.94
2017-05-15T23:19:11.651Z,10.12
2017-05-15T23:21:41.455Z,3.30
2017-05-15T23:24:11.289Z,3.20
2017-05-15T23:26:40.356Z,5.46
2017-05-15T23:29:09.476Z,6.40
2017-05-15T23:31:39.314Z,3.04
2017-05-15T23:34:08.381Z,5.50
2017-05-15T23:36:38.197Z,4.98
2017-05-15T23:39:07.289Z,6.34
2017-05-15T23:41:37.095Z,2.72
2017-05-15T23:44:06.922Z,3.54
2017-05-15T23:46:35.995Z,3.06
2017-05-15T23:49:05.819Z,4.24
2017-05-15T23:51:35.636Z,3.24
2017-05-15T23:54:05.444Z,4.20
2017-05-15T23:56:35.285Z,4.24
2017-05-15T23:59:05.239Z,5.32
